Time;durP1;ratioP1;P1;durP2;ratioP2;P2;SDS_P1;SDS_P2;PMS_P1;PMS_P2;Temp;Humidity;BMP_temperature;BMP_pressure;BME280_temperature;BME280_humidity;BME280_pressure;Samples;Min_cycle;Max_cycle;Signal;HPM_P1;HPM_P2
2022/11/25 00:00:47;;;;;;;16.38;3.80;;;5.80;99.90;;;;;;5080566;28;20486;-51
2022/11/25 00:03:13;;;;;;;13.13;3.40;;;5.80;99.90;;;;;;5064455;28;20049;-50
2022/11/25 00:05:39;;;;;;;17.65;4.03;;;5.80;99.90;;;;;;5065186;28;20127;-52
2022/11/25 00:08:05;;;;;;;22.40;4.35;;;5.80;99.90;;;;;;5064955;28;20041;-54
2022/11/25 00:10:30;;;;;;;16.20;3.83;;;5.80;99.90;;;;;;5064958;28;20052;-54
2022/11/25 00:12:56;;;;;;;20.98;5.15;;;5.80;99.90;;;;;;5066229;28;20053;-53
2022/11/25 00:15:22;;;;;;;14.52;3.92;;;5.80;99.90;;;;;;5066703;28;20044;-54
2022/11/25 00:17:47;;;;;;;17.25;3.65;;;5.80;99.90;;;;;;5066130;28;20127;-54
2022/11/25 00:20:13;;;;;;;21.48;4.90;;;5.80;99.90;;;;;;5081476;28;20044;-54
2022/11/25 00:22:39;;;;;;;15.32;3.92;;;7.00;99.90;;;;;;5066671;28;20577;-54
2022/11/25 00:25:05;;;;;;;18.67;4.00;;;5.80;99.90;;;;;;5082059;28;20056;-53
2022/11/25 00:27:31;;;;;;;13.93;4.15;;;5.90;99.90;;;;;;5066281;28;20123;-53
2022/11/25 00:29:56;;;;;;;21.65;4.75;;;5.90;99.90;;;;;;5065786;28;20174;-54
2022/11/25 00:32:22;;;;;;;25.92;4.10;;;5.90;99.90;;;;;;5064696;28;20048;-54
2022/11/25 00:34:48;;;;;;;19.00;3.63;;;5.90;99.90;;;;;;5065852;28;20041;-54
2022/11/25 00:37:13;;;;;;;17.30;3.83;;;5.80;99.90;;;;;;5066213;28;20119;-54
2022/11/25 00:39:39;;;;;;;18.13;4.50;;;6.70;99.90;;;;;;5065821;28;20049;-54
2022/11/25 00:44:49;;;;;;;18.88;4.47;;;5.80;99.90;;;;;;5066072;28;20093;-54
2022/11/25 00:47:18;;;;;;;18.00;3.65;;;6.90;99.90;;;;;;5066317;28;20040;-55
2022/11/25 00:49:48;;;;;;;13.40;3.67;;;5.70;99.90;;;;;;5066354;28;20052;-54
2022/11/25 00:52:17;;;;;;;21.30;4.13;;;5.90;99.90;;;;;;5065875;28;20044;-54
2022/11/25 00:54:43;;;;;;;13.98;3.08;;;5.90;99.90;;;;;;5081045;28;20516;-54
2022/11/25 00:57:10;;;;;;;14.57;3.33;;;5.90;99.90;;;;;;5065335;28;20074;-55
2022/11/25 00:59:36;;;;;;;20.95;4.35;;;5.90;99.90;;;;;;5065679;28;20102;-53
2022/11/25 01:02:01;;;;;;;20.55;3.70;;;5.90;99.90;;;;;;5065466;28;20052;-54
2022/11/25 01:04:27;;;;;;;21.70;4.03;;;5.90;99.90;;;;;;5064505;28;20048;-54
2022/11/25 01:06:55;;;;;;;16.48;3.45;;;6.00;99.90;;;;;;5065614;28;20463;-54
2022/11/25 01:09:22;;;;;;;18.02;3.30;;;6.00;99.90;;;;;;5065790;28;20040;-54
2022/11/25 01:11:51;;;;;;;21.52;4.32;;;6.50;99.90;;;;;;5065734;28;20784;-54
2022/11/25 01:14:21;;;;;;;17.92;3.33;;;6.00;99.90;;;;;;5065522;28;20056;-54
2022/11/25 01:16:47;;;;;;;22.48;5.72;;;6.00;99.90;;;;;;5065758;28;20076;-53
2022/11/25 01:19:14;;;;;;;19.13;4.97;;;6.00;99.90;;;;;;5065416;28;20045;-54
2022/11/25 01:21:40;;;;;;;21.33;3.70;;;6.00;99.90;;;;;;5065519;28;20051;-53
2022/11/25 01:24:06;;;;;;;14.18;4.13;;;6.80;99.90;;;;;;5065617;28;20432;-54
2022/11/25 01:26:33;;;;;;;17.13;3.67;;;5.90;99.90;;;;;;5065611;28;20045;-52
2022/11/25 01:29:02;;;;;;;16.50;3.72;;;5.90;99.90;;;;;;5080750;28;20048;-54
2022/11/25 01:31:31;;;;;;;18.05;3.72;;;5.90;99.90;;;;;;5069175;28;20036;-54
2022/11/25 01:33:59;;;;;;;19.88;4.28;;;5.90;99.90;;;;;;5069332;28;20033;-53
2022/11/25 01:36:26;;;;;;;19.58;3.92;;;5.90;99.90;;;;;;5069202;28;20105;-53
2022/11/25 01:38:54;;;;;;;16.55;4.13;;;5.80;99.90;;;;;;5069141;28;20092;-54
2022/11/25 01:41:21;;;;;;;16.23;3.47;;;6.20;99.90;;;;;;5069290;28;20035;-52
2022/11/25 01:44:07;;;;;;;17.48;3.45;;;5.90;99.90;;;;;;5069429;28;20080;-54
2022/11/25 01:46:44;;;;;;;17.25;3.42;;;5.90;99.90;;;;;;5068780;28;20075;-53
2022/11/25 01:49:25;;;;;;;14.85;4.28;;;5.90;99.90;;;;;;5084038;28;20052;-54
2022/11/25 01:52:09;;;;;;;19.15;3.58;;;5.90;99.90;;;;;;5084240;28;20126;-52
2022/11/25 01:54:40;;;;;;;19.05;3.33;;;5.90;99.90;;;;;;5068858;28;20056;-54
2022/11/25 01:57:12;;;;;;;14.68;2.90;;;5.90;99.90;;;;;;5068769;28;20044;-54
2022/11/25 01:59:43;;;;;;;18.63;3.30;;;5.90;99.90;;;;;;5068930;28;20531;-53
2022/11/25 02:02:09;;;;;;;20.75;3.25;;;5.80;99.90;;;;;;5068783;28;20048;-53
2022/11/25 02:04:38;;;;;;;16.00;3.70;;;5.90;99.90;;;;;;5068748;28;20048;-54
2022/11/25 02:07:29;;;;;;;17.77;4.50;;;5.80;99.90;;;;;;5067171;28;20053;-53
2022/11/25 02:09:55;;;;;;;21.27;4.50;;;5.90;99.90;;;;;;5068443;28;20049;-53
2022/11/25 02:12:21;;;;;;;21.67;3.35;;;5.90;99.90;;;;;;5068352;28;20086;-53
2022/11/25 02:14:50;;;;;;;17.80;3.42;;;5.90;99.90;;;;;;5068792;28;20040;-53
2022/11/25 02:17:17;;;;;;;24.42;3.90;;;5.80;99.90;;;;;;5068350;28;20583;-53
2022/11/25 02:20:03;;;;;;;19.05;3.22;;;6.00;99.90;;;;;;5068521;28;20056;-54
2022/11/25 02:22:55;;;;;;;12.70;3.60;;;6.00;99.90;;;;;;5068492;28;20040;-54
2022/11/25 02:25:22;;;;;;;20.23;3.40;;;6.00;99.90;;;;;;5083848;28;20053;-53
2022/11/25 02:27:53;;;;;;;20.85;4.25;;;6.00;99.90;;;;;;5068976;28;20048;-53
2022/11/25 02:30:19;;;;;;;24.50;4.50;;;6.00;99.90;;;;;;5068349;28;20693;-53
2022/11/25 02:32:47;;;;;;;16.13;3.50;;;6.00;99.90;;;;;;5068525;28;20066;-52
2022/11/25 02:35:26;;;;;;;22.63;4.28;;;6.00;99.90;;;;;;5068235;28;20041;-53
2022/11/25 02:37:56;;;;;;;17.80;3.90;;;6.00;99.90;;;;;;5068509;28;20044;-54
2022/11/25 02:40:22;;;;;;;26.15;4.25;;;6.00;99.90;;;;;;5068013;28;20064;-53
2022/11/25 02:42:49;;;;;;;24.33;3.92;;;6.00;99.90;;;;;;5067390;28;20040;-54
2022/11/25 02:45:19;;;;;;;17.98;3.83;;;6.10;99.90;;;;;;5068087;28;20044;-54
2022/11/25 02:47:45;;;;;;;12.18;3.55;;;6.10;99.90;;;;;;5068244;28;20610;-54
2022/11/25 02:50:12;;;;;;;19.90;4.10;;;6.10;99.90;;;;;;5067737;28;20135;-54
2022/11/25 02:52:38;;;;;;;22.15;4.28;;;6.10;99.90;;;;;;5068143;28;20056;-53
2022/11/25 02:55:04;;;;;;;14.68;4.15;;;6.10;99.90;;;;;;5068329;28;20044;-54
2022/11/25 02:57:30;;;;;;;18.98;4.43;;;6.10;99.90;;;;;;5067718;28;20094;-52
2022/11/25 02:59:55;;;;;;;21.50;4.10;;;6.20;99.90;;;;;;5067952;28;20044;-54
2022/11/25 03:02:21;;;;;;;31.02;4.63;;;6.20;99.90;;;;;;5068127;28;20048;-53
2022/11/25 03:04:47;;;;;;;31.05;6.18;;;6.20;99.90;;;;;;5067932;28;20037;-54
2022/11/25 03:07:12;;;;;;;19.83;4.57;;;6.60;99.90;;;;;;5067659;28;20037;-54
2022/11/25 03:09:38;;;;;;;28.23;4.75;;;6.20;99.90;;;;;;5067442;28;20044;-54
2022/11/25 03:12:19;;;;;;;23.83;7.22;;;6.20;99.90;;;;;;5067202;28;20098;-54
2022/11/25 03:14:45;;;;;;;25.80;5.53;;;6.20;99.90;;;;;;5067361;28;20037;-53
2022/11/25 03:17:10;;;;;;;29.67;5.72;;;6.30;99.90;;;;;;5067135;28;20815;-53
2022/11/25 03:19:36;;;;;;;25.92;6.30;;;6.30;99.90;;;;;;5067157;28;20095;-54
2022/11/25 03:22:03;;;;;;;19.92;5.65;;;6.10;99.90;;;;;;5065710;28;20055;-54
2022/11/25 03:24:29;;;;;;;21.10;6.40;;;7.10;99.90;;;;;;5067073;28;20115;-54
2022/11/25 03:26:54;;;;;;;26.30;5.63;;;6.40;99.90;;;;;;5066873;28;20080;-53
2022/11/25 03:29:20;;;;;;;22.42;6.10;;;6.40;99.90;;;;;;5066943;28;20055;-53
2022/11/25 03:31:46;;;;;;;37.47;7.15;;;6.40;99.90;;;;;;5066790;28;20757;-54
2022/11/25 03:34:11;;;;;;;24.60;6.82;;;6.40;99.90;;;;;;5066689;28;20045;-54
2022/11/25 03:36:38;;;;;;;22.42;6.82;;;6.40;99.90;;;;;;5066714;28;20045;-54
2022/11/25 03:39:03;;;;;;;23.80;5.43;;;6.40;99.90;;;;;;5066864;28;20087;-52
2022/11/25 03:41:29;;;;;;;19.63;6.00;;;6.40;99.90;;;;;;5065944;28;20086;-53
2022/11/25 03:43:55;;;;;;;35.50;8.05;;;7.00;99.90;;;;;;5065515;28;20048;-53
2022/11/25 03:46:20;;;;;;;28.25;6.90;;;6.40;99.90;;;;;;5081108;28;20048;-54
2022/11/25 03:48:46;;;;;;;30.40;7.53;;;6.40;99.90;;;;;;5065662;28;20131;-53
2022/11/25 03:51:12;;;;;;;23.98;6.78;;;6.40;99.90;;;;;;5066234;28;20076;-54
2022/11/25 03:53:37;;;;;;;34.00;7.32;;;6.40;99.90;;;;;;5066285;28;20151;-53
2022/11/25 03:56:03;;;;;;;33.85;7.03;;;6.40;99.90;;;;;;5066271;28;20063;-52
2022/11/25 03:58:29;;;;;;;27.20;7.13;;;6.40;99.90;;;;;;5064867;28;20048;-53
2022/11/25 04:00:59;;;;;;;31.23;7.65;;;6.40;99.90;;;;;;5066759;28;20391;-54
2022/11/25 04:03:24;;;;;;;40.67;8.07;;;6.40;99.90;;;;;;5066668;28;20052;-53
2022/11/25 04:05:50;;;;;;;30.30;7.43;;;6.50;99.90;;;;;;5066535;28;20045;-53
2022/11/25 04:08:16;;;;;;;30.55;7.88;;;6.50;99.90;;;;;;5066360;28;20527;-54
2022/11/25 04:10:41;;;;;;;23.65;6.53;;;7.10;99.90;;;;;;5066550;28;20045;-54
2022/11/25 04:13:07;;;;;;;29.38;7.22;;;6.50;99.90;;;;;;5066596;28;20139;-54
2022/11/25 04:15:33;;;;;;;26.88;7.80;;;6.50;99.90;;;;;;5066314;28;20554;-53
2022/11/25 04:17:58;;;;;;;30.48;7.22;;;6.50;99.90;;;;;;5065579;28;20052;-54
2022/11/25 04:20:24;;;;;;;24.27;7.85;;;6.50;99.90;;;;;;5064876;28;20055;-54
2022/11/25 04:22:50;;;;;;;28.70;7.75;;;6.50;99.90;;;;;;5081959;28;20044;-52
2022/11/25 04:25:15;;;;;;;32.58;8.15;;;6.50;99.90;;;;;;5066509;28;20101;-54
2022/11/25 04:27:41;;;;;;;32.75;7.22;;;6.50;99.90;;;;;;5066222;28;20051;-54
2022/11/25 04:30:07;;;;;;;27.20;7.35;;;6.50;99.90;;;;;;5066325;28;20059;-54
2022/11/25 04:32:35;;;;;;;36.30;8.13;;;6.60;99.90;;;;;;5047941;28;20052;-52
2022/11/25 04:35:00;;;;;;;28.30;10.15;;;7.20;99.90;;;;;;5081657;28;20041;-54
2022/11/25 04:37:26;;;;;;;33.22;8.60;;;6.60;99.90;;;;;;5081743;28;20378;-54
2022/11/25 04:39:52;;;;;;;29.55;8.55;;;6.60;99.90;;;;;;5066220;28;20471;-51
2022/11/25 04:42:38;;;;;;;32.60;7.97;;;6.60;99.90;;;;;;5065000;28;20783;-53
2022/11/25 04:45:07;;;;;;;30.35;8.15;;;6.50;99.90;;;;;;5066245;28;20131;-54
2022/11/25 04:47:33;;;;;;;35.45;8.82;;;6.60;99.90;;;;;;5065903;28;20036;-54
2022/11/25 04:49:59;;;;;;;26.38;7.57;;;6.60;99.90;;;;;;5064466;28;20101;-53
2022/11/25 04:52:25;;;;;;;30.17;8.13;;;6.60;99.90;;;;;;5065850;28;20545;-54
2022/11/25 04:54:51;;;;;;;38.83;9.35;;;6.60;99.90;;;;;;5066643;28;20775;-53
2022/11/25 04:57:16;;;;;;;23.88;7.50;;;6.60;99.90;;;;;;5066416;28;20481;-54
2022/11/25 04:59:42;;;;;;;34.30;8.95;;;6.60;99.90;;;;;;5066164;28;20037;-54
2022/11/25 05:02:23;;;;;;;27.02;7.53;;;6.70;99.90;;;;;;5066403;28;20044;-53
2022/11/25 05:04:50;;;;;;;31.55;8.57;;;6.70;99.90;;;;;;5067280;28;20119;-53
2022/11/25 05:07:18;;;;;;;28.30;8.25;;;7.50;99.90;;;;;;5070730;28;20041;-53
2022/11/25 05:09:44;;;;;;;33.70;8.88;;;6.60;99.90;;;;;;5069716;28;20051;-53
2022/11/25 05:12:14;;;;;;;29.30;9.20;;;6.60;99.90;;;;;;5069668;28;20094;-53
2022/11/25 05:14:40;;;;;;;31.73;8.85;;;6.60;99.90;;;;;;5069680;28;20053;-54
2022/11/25 05:17:06;;;;;;;31.20;8.57;;;6.50;99.90;;;;;;5069563;28;20048;-54
2022/11/25 05:19:34;;;;;;;37.65;10.10;;;6.60;99.90;;;;;;5069599;28;20570;-53
2022/11/25 05:22:00;;;;;;;46.92;10.57;;;7.40;99.90;;;;;;5069837;28;20125;-54
2022/11/25 05:24:26;;;;;;;28.95;8.52;;;6.50;99.90;;;;;;5069558;28;20114;-54
2022/11/25 05:26:52;;;;;;;32.10;10.25;;;6.50;99.90;;;;;;5069145;28;20134;-53
2022/11/25 05:29:17;;;;;;;22.95;8.52;;;6.50;99.90;;;;;;5069543;28;20050;-53
2022/11/25 05:31:43;;;;;;;36.20;9.02;;;6.50;99.90;;;;;;5069440;28;20782;-54
2022/11/25 05:34:09;;;;;;;37.53;9.40;;;6.50;99.90;;;;;;5068080;28;20055;-54
2022/11/25 05:36:34;;;;;;;40.85;9.93;;;6.50;99.90;;;;;;5068950;28;20509;-54
2022/11/25 05:39:00;;;;;;;34.33;10.13;;;6.50;99.90;;;;;;5068975;28;20048;-54
2022/11/25 05:41:26;;;;;;;37.10;11.10;;;6.50;99.90;;;;;;5069053;28;20423;-54
2022/11/25 05:43:52;;;;;;;32.70;10.88;;;6.50;99.90;;;;;;5068871;28;20037;-54
2022/11/25 05:46:18;;;;;;;33.00;9.48;;;6.50;99.90;;;;;;5084579;28;20094;-54
2022/11/25 05:48:44;;;;;;;41.15;10.63;;;6.50;99.90;;;;;;5067410;28;20044;-54
2022/11/25 05:51:09;;;;;;;34.20;10.50;;;6.50;99.90;;;;;;5084298;28;20608;-54
2022/11/25 05:53:35;;;;;;;52.75;11.75;;;6.50;99.90;;;;;;5084383;28;20063;-54
2022/11/25 05:56:04;;;;;;;38.20;11.55;;;6.50;99.90;;;;;;5069086;28;20049;-54
2022/11/25 05:58:31;;;;;;;34.65;9.85;;;6.60;99.90;;;;;;5068775;28;20049;-54
2022/11/25 06:00:57;;;;;;;48.03;11.27;;;7.30;99.90;;;;;;5069091;28;20048;-54
2022/11/25 06:03:24;;;;;;;48.97;11.80;;;7.50;99.90;;;;;;5069014;28;20383;-53
2022/11/25 06:05:49;;;;;;;39.90;13.48;;;6.60;99.90;;;;;;5069126;28;20032;-54
2022/11/25 06:08:15;;;;;;;37.45;10.00;;;6.60;99.90;;;;;;5068957;28;20387;-55
2022/11/25 06:10:41;;;;;;;43.40;12.02;;;6.70;99.90;;;;;;5084229;28;20036;-55
2022/11/25 06:13:08;;;;;;;47.22;13.05;;;6.70;99.90;;;;;;5083636;28;20052;-53
2022/11/25 06:15:40;;;;;;;32.13;10.77;;;6.70;99.90;;;;;;5068459;28;20056;-54
2022/11/25 06:18:05;;;;;;;32.97;11.07;;;6.70;99.90;;;;;;5067961;28;20043;-55
2022/11/25 06:20:31;;;;;;;37.45;12.35;;;6.70;99.90;;;;;;5083970;28;20052;-54
2022/11/25 06:22:57;;;;;;;41.53;12.45;;;6.80;99.90;;;;;;5068241;28;20048;-54
2022/11/25 06:25:24;;;;;;;34.78;13.60;;;6.90;99.90;;;;;;5068157;28;20139;-54
2022/11/25 06:27:50;;;;;;;31.00;11.73;;;6.90;99.90;;;;;;5068008;28;20040;-54
2022/11/25 06:30:16;;;;;;;53.20;14.50;;;6.90;99.90;;;;;;5068315;28;20127;-54
2022/11/25 06:32:42;;;;;;;43.95;13.13;;;7.00;99.90;;;;;;5066704;28;20052;-54
2022/11/25 06:35:08;;;;;;;47.15;14.02;;;6.90;99.90;;;;;;5068461;28;20048;-54
2022/11/25 06:37:34;;;;;;;41.35;13.35;;;7.00;99.90;;;;;;5068321;28;20064;-54
2022/11/25 06:39:59;;;;;;;37.33;12.32;;;7.00;99.90;;;;;;5067977;28;20139;-54
2022/11/25 06:42:25;;;;;;;36.47;14.23;;;7.00;99.90;;;;;;5068177;28;20557;-54
2022/11/25 06:44:51;;;;;;;38.97;12.73;;;7.10;99.90;;;;;;5067798;28;20040;-54
2022/11/25 06:47:16;;;;;;;41.72;13.32;;;7.10;99.90;;;;;;5066370;28;20037;-54
2022/11/25 06:49:42;;;;;;;44.70;13.77;;;7.10;99.90;;;;;;5067776;28;20047;-54
2022/11/25 06:52:08;;;;;;;37.55;12.05;;;7.10;99.90;;;;;;5067290;28;20091;-54
2022/11/25 06:54:34;;;;;;;38.35;12.85;;;7.10;99.90;;;;;;5067462;28;20048;-53
2022/11/25 06:56:59;;;;;;;33.30;12.38;;;7.20;99.90;;;;;;5067136;28;20044;-54
2022/11/25 06:59:25;;;;;;;45.78;13.52;;;7.00;99.90;;;;;;5082770;28;20094;-54
2022/11/25 07:01:51;;;;;;;38.33;12.77;;;7.10;99.90;;;;;;5067111;28;20389;-54
2022/11/25 07:04:16;;;;;;;46.15;12.65;;;7.10;99.90;;;;;;5067169;28;20063;-52
2022/11/25 07:06:42;;;;;;;36.30;13.07;;;7.70;99.90;;;;;;5067597;28;20632;-54
2022/11/25 07:09:08;;;;;;;43.40;13.85;;;7.20;99.90;;;;;;5067519;28;20539;-54
2022/11/25 07:11:36;;;;;;;36.50;12.18;;;7.10;99.90;;;;;;5067562;28;20531;-54
2022/11/25 07:14:05;;;;;;;42.25;10.95;;;7.10;99.90;;;;;;5067111;28;20520;-55
2022/11/25 07:16:32;;;;;;;32.05;11.20;;;7.10;99.90;;;;;;5067279;28;20454;-53
2022/11/25 07:19:00;;;;;;;33.17;11.27;;;7.00;99.90;;;;;;5067494;28;20040;-55
2022/11/25 07:21:28;;;;;;;41.03;12.18;;;7.10;99.90;;;;;;5067416;28;20693;-54
2022/11/25 07:23:54;;;;;;;42.50;11.30;;;7.00;99.90;;;;;;5066914;28;20044;-54
2022/11/25 07:26:23;;;;;;;28.30;9.95;;;7.50;99.90;;;;;;5067342;28;20126;-55
2022/11/25 07:28:50;;;;;;;27.95;9.52;;;8.10;99.90;;;;;;5066718;28;20052;-54
2022/11/25 07:31:33;;;;;;;29.83;9.98;;;7.20;99.90;;;;;;5066993;28;20413;-53
2022/11/25 07:34:03;;;;;;;29.63;9.02;;;7.20;99.90;;;;;;5066649;28;20133;-54
2022/11/25 07:36:31;;;;;;;28.05;9.10;;;7.20;99.90;;;;;;5066814;28;20044;-52
2022/11/25 07:38:59;;;;;;;25.98;9.00;;;7.10;99.90;;;;;;5082010;28;20097;-53
2022/11/25 07:41:26;;;;;;;39.22;9.68;;;7.10;99.90;;;;;;5066872;28;20044;-54
2022/11/25 07:43:54;;;;;;;30.92;8.30;;;7.50;99.90;;;;;;5065295;28;20048;-54
2022/11/25 07:46:26;;;;;;;29.02;9.05;;;7.90;99.90;;;;;;5066753;28;20044;-54
2022/11/25 07:48:52;;;;;;;28.17;7.93;;;7.00;99.90;;;;;;5082305;28;20060;-54
2022/11/25 07:51:30;;;;;;;37.92;10.55;;;7.20;99.90;;;;;;5066405;28;20532;-54
2022/11/25 07:53:57;;;;;;;34.95;8.43;;;6.90;99.90;;;;;;5066632;28;20049;-54
2022/11/25 07:56:23;;;;;;;26.30;8.55;;;7.50;99.90;;;;;;5066492;28;20036;-54
2022/11/25 07:58:49;;;;;;;20.67;7.03;;;6.70;99.90;;;;;;5066234;28;20048;-54
2022/11/25 08:01:17;;;;;;;32.95;8.02;;;6.70;99.90;;;;;;5066510;28;20037;-53
2022/11/25 08:03:44;;;;;;;24.70;8.00;;;7.50;99.90;;;;;;5065415;28;20048;-53
2022/11/25 08:06:16;;;;;;;27.67;7.45;;;6.50;99.90;;;;;;5066533;28;20032;-53
2022/11/25 08:08:42;;;;;;;26.70;7.85;;;6.50;99.90;;;;;;5066511;28;20494;-54
2022/11/25 08:11:15;;;;;;;24.38;7.60;;;6.40;99.90;;;;;;5066225;28;20485;-54
2022/11/25 08:13:41;;;;;;;28.08;8.77;;;6.30;99.90;;;;;;5081534;28;20363;-55
2022/11/25 08:16:07;;;;;;;28.75;8.65;;;6.30;99.90;;;;;;5066297;28;20079;-54
2022/11/25 08:18:33;;;;;;;29.02;7.95;;;7.20;99.90;;;;;;5048013;28;20055;-53
2022/11/25 08:21:04;;;;;;;26.15;7.10;;;6.30;99.90;;;;;;5066102;28;20373;-53
2022/11/25 08:23:33;;;;;;;29.65;8.00;;;6.30;99.90;;;;;;5066324;28;20036;-53
2022/11/25 08:26:04;;;;;;;33.55;8.00;;;6.40;99.90;;;;;;5081349;28;20040;-54
2022/11/25 08:28:30;;;;;;;33.92;9.38;;;6.40;99.90;;;;;;5065996;28;20040;-53
2022/11/25 08:31:08;;;;;;;24.92;7.25;;;7.10;99.90;;;;;;5065923;28;20051;-53
2022/11/25 08:33:33;;;;;;;23.58;7.18;;;6.40;99.90;;;;;;5066061;28;20082;-54
2022/11/25 08:35:59;;;;;;;29.67;8.50;;;6.50;99.90;;;;;;5061756;28;20079;-54
2022/11/25 08:38:26;;;;;;;25.05;8.25;;;6.40;99.90;;;;;;5065982;28;20041;-54
2022/11/25 08:40:53;;;;;;;25.95;8.68;;;6.50;99.90;;;;;;5068330;28;20041;-53
2022/11/25 08:43:20;;;;;;;28.17;7.32;;;6.50;99.90;;;;;;5069426;28;20043;-53
2022/11/25 08:45:47;;;;;;;30.67;8.10;;;6.60;99.90;;;;;;5068665;28;20127;-53
2022/11/25 08:48:14;;;;;;;33.78;9.10;;;6.60;99.90;;;;;;5069632;28;20705;-54
2022/11/25 08:50:43;;;;;;;24.15;7.53;;;6.60;99.90;;;;;;5068264;28;20101;-53
2022/11/25 08:53:09;;;;;;;26.98;8.63;;;7.30;99.90;;;;;;5069787;28;20088;-50
2022/11/25 08:55:37;;;;;;;27.83;8.32;;;6.70;99.90;;;;;;5085691;28;20668;-53
2022/11/25 08:58:03;;;;;;;34.67;8.70;;;6.80;99.90;;;;;;5069990;28;20051;-54
2022/11/25 09:00:29;;;;;;;28.00;9.32;;;6.80;99.90;;;;;;5085409;28;20045;-52
2022/11/25 09:02:54;;;;;;;26.30;8.27;;;6.90;99.90;;;;;;5071738;28;20043;-61
2022/11/25 09:05:20;;;;;;;30.10;9.98;;;6.90;99.90;;;;;;5069806;28;20044;-62
2022/11/25 09:07:46;;;;;;;25.02;7.63;;;7.00;99.90;;;;;;5070452;28;20052;-61
2022/11/25 09:10:16;;;;;;;35.25;9.43;;;7.00;99.90;;;;;;5069503;28;20151;-61
2022/11/25 09:12:42;;;;;;;31.15;10.02;;;7.10;99.90;;;;;;5085730;28;20060;-59
2022/11/25 09:15:09;;;;;;;25.73;8.57;;;7.10;99.90;;;;;;5070965;28;20110;-59
2022/11/25 09:17:36;;;;;;;28.52;8.93;;;7.20;99.90;;;;;;5071977;28;20044;-60
2022/11/25 09:20:04;;;;;;;32.58;9.90;;;7.30;99.90;;;;;;5073374;28;20049;-60
2022/11/25 09:22:30;;;;;;;23.80;8.32;;;7.40;99.90;;;;;;5070633;28;20044;-60
2022/11/25 09:24:56;;;;;;;25.65;8.38;;;7.40;99.90;;;;;;5069746;28;20138;-61
2022/11/25 09:27:21;;;;;;;31.63;10.15;;;7.40;99.90;;;;;;5072080;28;20079;-60
2022/11/25 09:29:47;;;;;;;27.55;8.48;;;7.40;99.90;;;;;;5070540;28;20048;-59
2022/11/25 09:32:13;;;;;;;32.95;9.20;;;7.40;99.90;;;;;;5070546;28;20036;-60
2022/11/25 09:34:38;;;;;;;22.10;8.98;;;7.50;99.90;;;;;;5061584;28;20044;-59
2022/11/25 09:37:04;;;;;;;32.08;10.45;;;7.40;99.90;;;;;;5072143;28;20086;-60
2022/11/25 09:39:31;;;;;;;31.23;10.18;;;7.60;99.90;;;;;;5072094;28;20097;-60
2022/11/25 09:48:34;;;;;;;22.60;9.57;;;7.80;99.90;;;;;;5067436;28;20437;-56
2022/11/25 09:51:08;;;;;;;30.60;9.83;;;7.90;99.90;;;;;;5067652;28;20036;-56
2022/11/25 09:53:53;;;;;;;28.08;9.80;;;8.40;99.90;;;;;;5064399;28;20279;-60
2022/11/25 09:56:37;;;;;;;27.98;9.75;;;8.00;99.90;;;;;;5063017;28;20048;-53
2022/11/25 09:59:27;;;;;;;24.15;9.55;;;8.10;99.90;;;;;;5065629;28;20146;-56
2022/11/25 10:01:59;;;;;;;23.10;10.00;;;8.10;99.90;;;;;;5066187;28;20045;-57
2022/11/25 10:04:33;;;;;;;22.55;8.68;;;9.00;99.90;;;;;;5065608;28;20040;-56
2022/11/25 10:07:02;;;;;;;24.77;9.50;;;8.10;99.90;;;;;;5048431;28;20036;-52
2022/11/25 10:09:34;;;;;;;16.67;7.70;;;8.10;99.90;;;;;;5047859;28;20045;-60
2022/11/25 10:12:11;;;;;;;22.67;9.20;;;8.10;99.90;;;;;;5047795;28;20044;-60
2022/11/25 10:14:50;;;;;;;20.75;7.93;;;8.10;99.90;;;;;;5048234;28;20049;-62
2022/11/25 10:17:30;;;;;;;18.52;7.80;;;8.20;99.90;;;;;;5048001;28;20052;-59
2022/11/25 10:20:23;;;;;;;21.85;8.95;;;8.20;99.90;;;;;;5048560;28;20052;-63
2022/11/25 10:23:11;;;;;;;26.10;8.55;;;8.20;99.90;;;;;;5063651;28;20095;-59
2022/11/25 10:25:41;;;;;;;18.50;8.48;;;8.30;99.90;;;;;;5058270;28;20098;-59
2022/11/25 10:28:16;;;;;;;17.65;7.00;;;8.40;99.90;;;;;;5065962;28;20490;-60
2022/11/25 10:31:06;;;;;;;17.30;6.82;;;8.30;99.90;;;;;;5066586;28;20052;-64
2022/11/25 10:33:37;;;;;;;19.13;7.35;;;8.40;99.90;;;;;;5047628;28;20095;-57
2022/11/25 10:36:02;;;;;;;21.27;6.82;;;9.00;99.90;;;;;;5027140;28;20057;-58
2022/11/25 10:38:56;;;;;;;13.65;6.07;;;8.40;99.90;;;;;;5045776;28;20056;-58
2022/11/25 10:41:27;;;;;;;21.17;7.90;;;8.50;99.90;;;;;;5044567;28;20144;-57
2022/11/25 10:43:53;;;;;;;16.63;5.50;;;8.50;99.90;;;;;;5045415;28;20175;-57
2022/11/25 10:46:43;;;;;;;20.73;6.20;;;8.50;99.90;;;;;;5045248;28;20072;-57
2022/11/25 10:49:30;;;;;;;15.60;7.07;;;8.50;99.90;;;;;;5045446;28;20122;-57
2022/11/25 10:51:56;;;;;;;11.55;5.85;;;8.50;99.90;;;;;;5045569;28;20037;-57
2022/11/25 10:54:27;;;;;;;17.80;6.32;;;8.60;99.90;;;;;;5044449;28;20048;-57
2022/11/25 10:57:01;;;;;;;11.52;5.30;;;8.60;99.90;;;;;;5026850;28;20123;-59
2022/11/25 10:59:33;;;;;;;14.82;5.75;;;8.60;99.90;;;;;;5026267;28;20513;-59
2022/11/25 11:02:15;;;;;;;17.95;6.00;;;8.70;99.90;;;;;;5026574;28;20175;-56
2022/11/25 11:05:07;;;;;;;16.10;5.45;;;8.70;99.90;;;;;;5043804;28;20090;-56
2022/11/25 11:07:37;;;;;;;16.23;6.03;;;8.70;99.90;;;;;;5044296;28;20040;-57
2022/11/25 11:10:25;;;;;;;13.45;4.78;;;8.70;99.90;;;;;;5044698;28;20765;-45
2022/11/25 11:13:03;;;;;;;16.17;4.75;;;8.70;99.90;;;;;;5044226;28;20060;-47
2022/11/25 11:15:32;;;;;;;16.60;5.03;;;8.80;99.90;;;;;;5045105;28;20552;-50
2022/11/25 11:18:12;;;;;;;13.20;4.57;;;8.80;99.90;;;;;;5044565;28;20641;-58
2022/11/25 11:20:45;;;;;;;12.55;4.15;;;8.80;99.90;;;;;;5044182;28;20150;-49
2022/11/25 11:23:13;;;;;;;14.50;5.57;;;9.20;99.90;;;;;;5026154;28;20150;-52
2022/11/25 11:25:55;;;;;;;11.23;4.25;;;8.80;99.90;;;;;;5044187;28;20041;-48
2022/11/25 11:28:33;;;;;;;17.27;4.03;;;8.90;99.90;;;;;;5043555;28;20467;-48
2022/11/25 11:31:16;;;;;;;19.00;5.30;;;8.90;99.90;;;;;;5025819;28;20083;-53
2022/11/25 11:33:49;;;;;;;12.30;3.33;;;8.90;99.90;;;;;;5044344;28;20159;-56
2022/11/25 11:36:20;;;;;;;13.07;3.15;;;8.90;99.90;;;;;;5049760;28;20057;-57
2022/11/25 11:39:10;;;;;;;14.05;3.53;;;8.90;99.90;;;;;;5043759;28;20052;-54
2022/11/25 11:41:58;;;;;;;14.50;3.63;;;9.00;99.90;;;;;;5043960;28;20052;-54
2022/11/25 11:44:35;;;;;;;13.90;3.47;;;9.10;99.90;;;;;;5044049;28;20580;-50
2022/11/25 11:47:23;;;;;;;13.43;3.53;;;10.20;99.90;;;;;;5044498;28;20064;-47
2022/11/25 11:49:51;;;;;;;13.50;3.47;;;9.50;99.90;;;;;;5044356;28;20048;-59
2022/11/25 11:52:28;;;;;;;11.43;3.03;;;9.60;99.90;;;;;;5044556;28;20037;-56
2022/11/25 11:55:22;;;;;;;15.43;3.22;;;9.70;99.90;;;;;;5043584;28;20061;-56
2022/11/25 11:57:56;;;;;;;14.45;2.63;;;9.60;99.90;;;;;;5043554;28;20060;-54
2022/11/25 12:00:22;;;;;;;10.10;2.72;;;9.90;99.90;;;;;;5025776;28;20131;-54
2022/11/25 12:03:13;;;;;;;11.05;1.90;;;9.70;99.90;;;;;;5043144;28;20041;-54
2022/11/25 12:05:39;;;;;;;13.70;2.97;;;9.80;99.90;;;;;;5025537;28;20487;-56
2022/11/25 12:08:07;;;;;;;12.98;1.88;;;9.50;99.90;;;;;;5043508;28;20097;-55
2022/11/25 12:11:00;;;;;;;14.88;2.75;;;9.70;99.90;;;;;;5043720;28;20058;-55
2022/11/25 12:13:32;;;;;;;;;;;9.70;99.90;;;;;;5044247;28;20725;-56
2022/11/25 12:16:10;;;;;;;13.30;2.20;;;9.60;99.90;;;;;;5043830;28;19931;-54
2022/11/25 12:19:07;;;;;;;10.63;2.58;;;9.60;99.90;;;;;;5043477;28;20041;-52
2022/11/25 12:21:58;;;;;;;10.90;2.00;;;9.70;99.90;;;;;;5043598;28;20398;-53
2022/11/25 12:24:53;;;;;;;15.40;2.27;;;9.60;99.90;;;;;;5043974;28;20041;-52
2022/11/25 12:27:28;;;;;;;9.20;3.13;;;9.60;99.90;;;;;;5025684;28;20049;-49
2022/11/25 12:30:09;;;;;;;10.55;1.77;;;9.50;99.90;;;;;;5043815;28;20045;-51
2022/11/25 12:32:46;;;;;;;16.10;2.85;;;9.50;99.90;;;;;;5044210;28;20056;-50
2022/11/25 12:35:46;;;;;;;11.27;2.35;;;9.60;99.90;;;;;;5018237;28;20060;-58
2022/11/25 12:38:50;;;;;;;11.88;2.10;;;9.70;99.90;;;;;;5043618;28;20049;-55
2022/11/25 12:41:50;;;;;;;13.25;2.10;;;9.80;99.90;;;;;;5043105;28;20049;-55
2022/11/25 12:44:19;;;;;;;9.63;1.73;;;9.80;99.90;;;;;;5043794;28;20126;-54
2022/11/25 12:46:50;;;;;;;10.25;1.40;;;9.70;99.90;;;;;;5043052;28;20049;-54
2022/11/25 12:49:26;;;;;;;11.90;1.92;;;9.60;99.90;;;;;;5042872;28;20049;-58
2022/11/25 12:52:15;;;;;;;15.07;2.38;;;10.40;99.90;;;;;;5042777;28;20063;-58
2022/11/25 12:55:03;;;;;;;12.38;2.42;;;9.80;99.90;;;;;;5042542;28;20509;-57
2022/11/25 12:57:50;;;;;;;11.38;3.03;;;9.30;99.90;;;;;;5042928;28;20040;-58
2022/11/25 13:00:16;;;;;;;10.13;1.60;;;9.20;99.90;;;;;;5044472;28;20179;-59
2022/11/25 13:03:12;;;;;;;9.52;1.92;;;9.20;99.90;;;;;;5025050;28;20051;-57
2022/11/25 13:05:50;;;;;;;13.25;2.45;;;9.20;99.90;;;;;;5042703;28;20531;-48
2022/11/25 13:08:19;;;;;;;9.50;2.38;;;9.10;99.90;;;;;;5043213;28;20494;-45
2022/11/25 13:10:56;;;;;;;16.65;2.28;;;9.20;99.90;;;;;;5043079;28;20432;-47